Time;durP1;ratioP1;P1;durP2;ratioP2;P2;SDS_P1;SDS_P2;PMS_P1;PMS_P2;Temp;Humidity;BMP_temperature;BMP_pressure;BME280_temperature;BME280_humidity;BME280_pressure;Samples;Min_cycle;Max_cycle;Signal;HPM_P1;HPM_P2
2024/01/14 00:00:33;;;;;;;;;;;;;;;-1.62;60.15;98389.86;109061;1259;61713;-65
2024/01/14 00:03:01;;;;;;;;;;;;;;;-1.49;59.86;98382.33;109367;1254;58999;-65
2024/01/14 00:05:29;;;;;;;;;;;;;;;-1.40;59.69;98377.24;109471;1254;73601;-64
2024/01/14 00:07:56;;;;;;;;;;;;;;;-1.31;59.53;98369.27;109400;1253;67578;-66
2024/01/14 00:10:23;;;;;;;;;;;;;;;-1.25;59.44;98366.93;109452;1254;71920;-63
2024/01/14 00:12:51;;;;;;;;;;;;;;;-1.22;59.53;98362.27;109311;1254;61710;-62
2024/01/14 00:15:19;;;;;;;;;;;;;;;-1.24;59.72;98359.15;109355;1254;59871;-65
2024/01/14 00:17:47;;;;;;;;;;;;;;;-1.26;60.01;98354.98;109354;1254;73452;-64
2024/01/14 00:20:15;;;;;;;;;;;;;;;-1.39;60.89;98354.61;109338;1254;67244;-64
2024/01/14 00:22:42;;;;;;;;;;;;;;;-1.33;61.10;98350.51;109379;1254;71770;-62
2024/01/14 00:25:11;;;;;;;;;;;;;;;-1.22;61.27;98346.27;109143;1255;61782;-64
2024/01/14 00:27:39;;;;;;;;;;;;;;;-1.20;61.40;98344.60;109392;1253;59915;-63
2024/01/14 00:30:07;;;;;;;;;;;;;;;-1.20;61.63;98342.08;109156;1254;74746;-64
2024/01/14 00:32:34;;;;;;;;;;;;;;;-1.12;61.57;98344.11;109351;1254;67220;-64
2024/01/14 00:35:02;;;;;;;;;;;;;;;-0.93;61.31;98345.52;109345;1254;72730;-65
2024/01/14 00:37:29;;;;;;;;;;;;;;;-0.72;60.76;98342.74;109343;1254;61719;-62
2024/01/14 00:39:57;;;;;;;;;;;;;;;-0.77;61.37;98341.52;109297;1254;59098;-62
2024/01/14 00:42:25;;;;;;;;;;;;;;;-0.74;61.25;98339.35;109013;1254;74722;-61
2024/01/14 00:44:52;;;;;;;;;;;;;;;-0.84;61.82;98332.88;109452;1254;68818;-65
2024/01/14 00:47:20;;;;;;;;;;;;;;;-0.77;61.66;98333.30;109361;1254;72733;-63
2024/01/14 00:49:47;;;;;;;;;;;;;;;-0.82;62.13;98326.90;109427;1254;61763;-65
2024/01/14 00:52:15;;;;;;;;;;;;;;;-1.07;62.97;98318.84;109459;1254;59873;-64
2024/01/14 00:54:42;;;;;;;;;;;;;;;-0.97;62.94;98317.69;109216;1254;74759;-63
2024/01/14 00:57:10;;;;;;;;;;;;;;;-0.73;62.31;98314.78;109363;1254;68578;-64
2024/01/14 00:59:38;;;;;;;;;;;;;;;-0.58;61.73;98303.55;109439;1254;72788;-62
2024/01/14 01:02:05;;;;;;;;;;;;;;;-0.76;62.08;98298.02;109377;1254;60902;-63
2024/01/14 01:04:33;;;;;;;;;;;;;;;-0.92;62.84;98290.84;109354;1254;59957;-65
2024/01/14 01:07:00;;;;;;;;;;;;;;;-0.88;62.99;98286.85;109417;1254;73501;-62
2024/01/14 01:09:28;;;;;;;;;;;;;;;-0.94;63.35;98279.55;109373;1254;68505;-65
2024/01/14 01:11:55;;;;;;;;;;;;;;;-0.99;63.64;98278.40;109372;1254;72708;-65
2024/01/14 01:14:23;;;;;;;;;;;;;;;-0.84;63.54;98274.99;109348;1257;60914;-65
2024/01/14 01:16:50;;;;;;;;;;;;;;;-0.49;62.35;98265.05;109416;1253;60029;-66
2024/01/14 01:19:18;;;;;;;;;;;;;;;-0.42;62.31;98261.91;109380;1254;74719;-63
2024/01/14 01:21:45;;;;;;;;;;;;;;;-0.12;61.38;98253.84;109386;1254;66446;-62
2024/01/14 01:24:14;;;;;;;;;;;;;;;-0.17;61.46;98245.48;109366;1254;71442;-63
2024/01/14 01:26:42;;;;;;;;;;;;;;;-0.10;61.28;98239.47;109356;1257;60930;-63
2024/01/14 01:29:09;;;;;;;;;;;;;;;-0.17;61.67;98234.50;109384;1253;59873;-61
2024/01/14 01:31:36;;;;;;;;;;;;;;;-0.18;61.97;98230.08;109375;1254;73453;-62
2024/01/14 01:34:15;;;;;;;;;;;;;;;-0.17;62.21;98227.76;109387;1254;68540;-62
2024/01/14 01:36:43;;;;;;;;;;;;;;;-0.30;62.56;98229.25;109434;1254;72753;-61
2024/01/14 01:39:10;;;;;;;;;;;;;;;-0.36;62.98;98225.86;109334;1254;61885;-61
2024/01/14 01:41:38;;;;;;;;;;;;;;;-0.34;63.36;98221.04;109371;1254;59891;-61
2024/01/14 01:44:05;;;;;;;;;;;;;;;-0.09;62.78;98219.09;109377;1254;73449;-63
2024/01/14 01:46:34;;;;;;;;;;;;;;;-0.04;62.60;98213.07;109374;1254;68575;-62
2024/01/14 01:49:02;;;;;;;;;;;;;;;-0.10;63.06;98210.69;109074;1254;72783;-62
2024/01/14 01:51:30;;;;;;;;;;;;;;;0.02;62.95;98202.90;109360;1256;61737;-62
2024/01/14 01:53:57;;;;;;;;;;;;;;;0.08;62.75;98200.24;109387;1254;59886;-64
2024/01/14 01:56:25;;;;;;;;;;;;;;;0.02;63.22;98196.77;109373;1254;73463;-66
2024/01/14 01:58:52;;;;;;;;;;;;;;;0.15;63.02;98188.45;109299;1254;68843;-66
2024/01/14 02:01:21;;;;;;;;;;;;;;;0.23;63.18;98188.00;109014;1254;72746;-64
2024/01/14 02:03:50;;;;;;;;;;;;;;;0.19;63.37;98186.37;109369;1256;61725;-65
2024/01/14 02:06:18;;;;;;;;;;;;;;;0.20;63.42;98185.17;109356;1254;59855;-64
2024/01/14 02:08:45;;;;;;;;;;;;;;;0.19;63.82;98170.05;109320;1254;74722;-65
2024/01/14 02:11:12;;;;;;;;;;;;;;;0.22;63.88;98165.58;109359;1254;68497;-64
2024/01/14 02:13:40;;;;;;;;;;;;;;;0.41;63.58;98166.28;109371;1253;72716;-64
2024/01/14 02:16:07;;;;;;;;;;;;;;;0.43;63.57;98168.90;109368;1255;61839;-65
2024/01/14 02:18:35;;;;;;;;;;;;;;;0.40;63.77;98160.46;109372;1254;58905;-65
2024/01/14 02:21:03;;;;;;;;;;;;;;;0.24;64.67;98153.79;109258;1256;74713;-65
2024/01/14 02:23:31;;;;;;;;;;;;;;;0.49;64.35;98155.14;109017;1256;67345;-65
2024/01/14 02:25:59;;;;;;;;;;;;;;;0.31;65.07;98149.85;109142;1257;71561;-66
2024/01/14 02:28:26;;;;;;;;;;;;;;;0.58;64.69;98151.95;109134;1257;61922;-66
2024/01/14 02:30:54;;;;;;;;;;;;;;;0.81;63.93;98145.99;109115;1257;59145;-66
2024/01/14 02:33:22;;;;;;;;;;;;;;;0.86;63.77;98140.89;109077;1258;74731;-66
2024/01/14 02:35:50;;;;;;;;;;;;;;;0.62;64.91;98135.15;108973;1260;68519;-66
2024/01/14 02:38:17;;;;;;;;;;;;;;;0.77;64.33;98131.79;108971;1259;72718;-66
2024/01/14 02:40:45;;;;;;;;;;;;;;;0.98;63.80;98123.67;109037;1259;61733;-66
2024/01/14 02:43:12;;;;;;;;;;;;;;;0.69;64.85;98119.46;109043;1259;58926;-65
2024/01/14 02:45:39;;;;;;;;;;;;;;;0.75;65.29;98118.16;109138;1257;74726;-66
2024/01/14 02:48:07;;;;;;;;;;;;;;;0.93;64.92;98114.92;108374;1257;1002644;-66
2024/01/14 02:50:35;;;;;;;;;;;;;;;1.00;65.14;98114.04;109122;1257;71451;-66
2024/01/14 02:53:02;;;;;;;;;;;;;;;0.81;66.37;98107.38;109225;1256;61718;-66
2024/01/14 02:55:30;;;;;;;;;;;;;;;1.08;65.89;98101.92;109177;1256;59868;-66
2024/01/14 02:57:57;;;;;;;;;;;;;;;1.09;65.85;98103.90;109210;1256;73437;-66
2024/01/14 03:00:26;;;;;;;;;;;;;;;1.10;66.11;98103.80;108386;1256;1002207;-65
2024/01/14 03:02:53;;;;;;;;;;;;;;;1.04;66.62;98102.30;109188;1256;71884;-66
2024/01/14 03:05:21;;;;;;;;;;;;;;;0.99;67.17;98097.85;109278;1256;60440;-66
2024/01/14 03:07:49;;;;;;;;;;;;;;;1.23;66.64;98093.80;109335;1254;59007;-66
2024/01/14 03:10:16;;;;;;;;;;;;;;;1.34;66.21;98091.70;109196;1254;73436;-66
2024/01/14 03:12:44;;;;;;;;;;;;;;;1.15;67.33;98089.87;109206;1253;67096;-66
2024/01/14 03:15:11;;;;;;;;;;;;;;;1.08;67.87;98081.52;109386;1253;71431;-66
2024/01/14 03:17:39;;;;;;;;;;;;;;;1.16;68.25;98083.70;109229;1256;61708;-66
2024/01/14 03:20:07;;;;;;;;;;;;;;;1.41;67.31;98078.25;109151;1256;59847;-66
2024/01/14 03:22:35;;;;;;;;;;;;;;;1.47;67.00;98075.13;109151;1257;74735;-66
2024/01/14 03:25:02;;;;;;;;;;;;;;;1.33;67.49;98069.67;109139;1257;68654;-66
2024/01/14 03:27:30;;;;;;;;;;;;;;;1.27;68.27;98062.56;109127;1257;72732;-63
2024/01/14 03:29:57;;;;;;;;;;;;;;;1.32;68.50;98058.06;109095;1257;61718;-66
2024/01/14 03:32:25;;;;;;;;;;;;;;;1.42;67.94;98054.55;109098;1257;59829;-66
2024/01/14 03:34:52;;;;;;;;;;;;;;;1.57;67.44;98056.27;109147;1256;74710;-64
2024/01/14 03:37:20;;;;;;;;;;;;;;;1.44;68.16;98052.61;109125;1257;67333;-61
2024/01/14 03:39:48;;;;;;;;;;;;;;;1.39;68.36;98049.76;109110;1256;72704;-64
2024/01/14 03:42:15;;;;;;;;;;;;;;;1.25;69.74;98052.77;109061;1256;60553;-64
2024/01/14 03:44:43;;;;;;;;;;;;;;;1.38;69.06;98041.23;109154;1257;58953;-62
2024/01/14 03:47:10;;;;;;;;;;;;;;;1.56;68.38;98047.91;109127;1256;73492;-65
2024/01/14 03:49:38;;;;;;;;;;;;;;;1.55;68.93;98044.30;109124;1257;68530;-64
2024/01/14 03:52:06;;;;;;;;;;;;;;;1.73;68.64;98041.61;109135;1257;72719;-64
2024/01/14 03:54:33;;;;;;;;;;;;;;;1.91;67.96;98041.27;109118;1257;60911;-62
2024/01/14 03:57:01;;;;;;;;;;;;;;;1.62;69.50;98029.52;109458;1254;59039;-65
2024/01/14 03:59:29;;;;;;;;;;;;;;;1.63;70.63;98035.09;109587;1253;72483;-62
2024/01/14 04:01:56;;;;;;;;;;;;;;;1.70;70.58;98030.69;109473;1254;68516;-63
2024/01/14 04:04:23;;;;;;;;;;;;;;;1.62;71.49;98032.00;109598;1253;71458;-66
2024/01/14 04:06:51;;;;;;;;;;;;;;;1.78;71.09;98028.84;109442;1253;60461;-66
2024/01/14 04:09:19;;;;;;;;;;;;;;;1.63;72.31;98025.85;109491;1254;58888;-64
2024/01/14 04:11:46;;;;;;;;;;;;;;;1.83;72.14;98027.45;109515;1254;73390;-65
2024/01/14 04:14:14;;;;;;;;;;;;;;;1.58;74.00;98020.77;109362;1256;67708;-65
2024/01/14 04:16:41;;;;;;;;;;;;;;;1.80;74.18;98021.80;109143;1257;70715;-66
2024/01/14 04:19:08;;;;;;;;;;;;;;;1.90;73.16;98017.34;109097;1256;61942;-66
2024/01/14 04:21:36;;;;;;;;;;;;;;;1.78;74.50;98012.98;109171;1257;58855;-65
2024/01/14 04:24:04;;;;;;;;;;;;;;;1.79;74.38;98017.91;109219;1255;74107;-65
2024/01/14 04:26:31;;;;;;;;;;;;;;;1.84;73.95;98012.29;109168;1256;67492;-66
2024/01/14 04:28:59;;;;;;;;;;;;;;;1.63;75.43;98008.23;109167;1256;71474;-66
2024/01/14 04:31:26;;;;;;;;;;;;;;;1.75;74.95;98004.29;109182;1255;60459;-66
2024/01/14 04:33:56;;;;;;;;;;;;;;;1.76;75.47;98003.52;108429;1257;1002091;-66
2024/01/14 04:36:24;;;;;;;;;;;;;;;1.55;76.64;97997.96;109199;1257;72840;-66
2024/01/14 04:38:51;;;;;;;;;;;;;;;1.84;75.25;97997.73;109049;1255;68612;-65
2024/01/14 04:41:19;;;;;;;;;;;;;;;1.71;76.23;97995.59;109128;1259;72734;-65
2024/01/14 04:43:46;;;;;;;;;;;;;;;1.57;77.86;97994.45;109148;1255;60453;-66
2024/01/14 04:46:14;;;;;;;;;;;;;;;1.85;76.58;97993.99;109406;1254;59840;-65
2024/01/14 04:48:41;;;;;;;;;;;;;;;1.65;78.30;97990.66;109574;1253;74709;-66
2024/01/14 04:51:09;;;;;;;;;;;;;;;1.71;78.77;97986.95;109491;1254;68530;-63
2024/01/14 04:53:37;;;;;;;;;;;;;;;1.87;78.33;97984.31;109581;1253;72740;-65
2024/01/14 04:56:05;;;;;;;;;;;;;;;1.83;78.95;97986.30;109109;1254;60438;-64
2024/01/14 04:58:33;;;;;;;;;;;;;;;2.27;77.06;97986.83;109396;1253;59845;-65
2024/01/14 05:01:00;;;;;;;;;;;;;;;2.33;77.09;97977.68;109383;1253;74738;-65
2024/01/14 05:03:28;;;;;;;;;;;;;;;2.51;76.14;97977.55;109279;1256;67173;-62
2024/01/14 05:05:56;;;;;;;;;;;;;;;2.51;76.45;97977.34;109137;1256;71504;-64
2024/01/14 05:08:24;;;;;;;;;;;;;;;2.37;77.40;97973.19;109099;1256;61779;-66
2024/01/14 05:10:51;;;;;;;;;;;;;;;2.58;76.63;97977.98;109337;1255;59002;-65
2024/01/14 05:13:18;;;;;;;;;;;;;;;2.79;75.13;97979.48;109104;1255;73547;-65
2024/01/14 05:15:46;;;;;;;;;;;;;;;2.63;75.94;97975.08;109301;1256;67651;-64
2024/01/14 05:18:13;;;;;;;;;;;;;;;2.85;75.21;97975.95;109166;1255;71432;-65
2024/01/14 05:20:41;;;;;;;;;;;;;;;2.75;75.34;97974.20;109292;1255;61769;-65
2024/01/14 05:23:08;;;;;;;;;;;;;;;2.74;75.38;97970.56;109294;1255;59833;-65
2024/01/14 05:25:36;;;;;;;;;;;;;;;2.60;76.06;97962.48;109312;1256;74727;-65
2024/01/14 05:28:03;;;;;;;;;;;;;;;2.59;76.60;97964.59;109157;1255;67617;-65
2024/01/14 05:30:31;;;;;;;;;;;;;;;2.61;77.13;97963.09;109301;1255;72820;-62
2024/01/14 05:32:58;;;;;;;;;;;;;;;2.77;76.04;97960.62;109268;1256;61773;-64
2024/01/14 05:35:26;;;;;;;;;;;;;;;2.59;77.22;97962.95;109512;1253;58950;-62
2024/01/14 05:37:53;;;;;;;;;;;;;;;2.66;77.13;97963.59;109474;1254;74731;-64
2024/01/14 05:40:21;;;;;;;;;;;;;;;2.73;76.41;97959.09;109346;1253;67827;-62
2024/01/14 05:42:48;;;;;;;;;;;;;;;2.59;77.34;97956.54;109464;1253;71503;-66
2024/01/14 05:45:15;;;;;;;;;;;;;;;2.42;78.14;97963.67;109190;1253;61727;-65
2024/01/14 05:47:43;;;;;;;;;;;;;;;2.36;78.80;97962.00;109382;1253;60314;-64
2024/01/14 05:50:10;;;;;;;;;;;;;;;2.62;77.23;97959.29;109376;1253;74724;-66
2024/01/14 05:52:38;;;;;;;;;;;;;;;2.63;76.79;97959.52;109108;1253;68600;-64
2024/01/14 05:55:05;;;;;;;;;;;;;;;2.36;78.65;97956.59;109358;1253;74777;-65
2024/01/14 05:57:33;;;;;;;;;;;;;;;2.63;77.51;97951.57;109379;1255;60433;-62
2024/01/14 06:00:00;;;;;;;;;;;;;;;2.54;77.69;97951.73;109458;1253;59053;-63
2024/01/14 06:02:32;;;;;;;;;;;;;;;2.36;78.15;97951.87;109159;1253;74759;-62
2024/01/14 06:05:00;;;;;;;;;;;;;;;2.40;78.52;97950.84;109151;1253;66415;-62
2024/01/14 06:07:27;;;;;;;;;;;;;;;2.60;77.15;97951.79;109385;1253;72203;-62
2024/01/14 06:09:55;;;;;;;;;;;;;;;2.62;76.92;97946.94;109424;1254;61731;-62
2024/01/14 06:12:22;;;;;;;;;;;;;;;2.80;75.88;97953.42;109402;1256;59863;-62
2024/01/14 06:14:50;;;;;;;;;;;;;;;2.86;75.14;97954.03;109390;1253;73483;-65
2024/01/14 06:17:17;;;;;;;;;;;;;;;2.59;76.75;97960.25;109377;1253;68849;-66
2024/01/14 06:19:45;;;;;;;;;;;;;;;2.67;76.22;97957.98;109385;1253;71453;-66
2024/01/14 06:22:12;;;;;;;;;;;;;;;2.88;75.18;97957.30;109368;1256;59475;-65
2024/01/14 06:24:40;;;;;;;;;;;;;;;2.74;75.36;97958.05;109381;1253;58870;-64
2024/01/14 06:27:07;;;;;;;;;;;;;;;2.74;75.47;97957.73;109414;1253;73429;-62
2024/01/14 06:29:35;;;;;;;;;;;;;;;2.76;75.50;97952.24;109424;1253;67226;-71
2024/01/14 06:32:02;;;;;;;;;;;;;;;2.73;75.70;97947.32;109364;1253;72756;-62
2024/01/14 06:34:30;;;;;;;;;;;;;;;2.64;76.11;97947.98;109528;1253;61762;-65
2024/01/14 06:36:58;;;;;;;;;;;;;;;2.73;75.70;97948.97;109380;1253;59735;-65
2024/01/14 06:39:26;;;;;;;;;;;;;;;2.80;75.06;97949.70;109412;1253;74986;-65
2024/01/14 06:41:53;;;;;;;;;;;;;;;2.95;74.37;97947.64;109536;1253;68869;-66
2024/01/14 06:44:20;;;;;;;;;;;;;;;2.74;74.98;97942.88;109478;1253;72731;-65
2024/01/14 06:46:48;;;;;;;;;;;;;;;2.74;75.11;97939.86;109448;1254;61819;-65
2024/01/14 06:49:15;;;;;;;;;;;;;;;2.79;74.96;97939.30;109466;1253;58839;-64
2024/01/14 06:51:43;;;;;;;;;;;;;;;2.77;74.88;97935.68;109515;1253;74720;-65
2024/01/14 06:54:11;;;;;;;;;;;;;;;2.90;74.22;97939.84;109467;1253;68806;-65
2024/01/14 06:56:43;;;;;;;;;;;;;;;3.02;73.26;97937.89;109497;1253;72796;-65
2024/01/14 06:59:14;;;;;;;;;;;;;;;2.72;74.74;97928.60;109257;1253;60554;-63
2024/01/14 07:01:41;;;;;;;;;;;;;;;2.66;74.89;97931.02;109368;1256;59880;-65
2024/01/14 07:04:09;;;;;;;;;;;;;;;2.81;74.00;97933.56;109408;1253;74703;-64
2024/01/14 07:06:37;;;;;;;;;;;;;;;2.97;73.24;97933.41;109352;1256;68552;-65
2024/01/14 07:09:04;;;;;;;;;;;;;;;3.09;72.27;97932.46;109158;1256;71529;-64
2024/01/14 07:11:32;;;;;;;;;;;;;;;2.77;73.32;97926.40;109177;1256;61872;-62
2024/01/14 07:13:59;;;;;;;;;;;;;;;3.29;71.43;97931.88;109174;1256;59092;-61
2024/01/14 07:16:27;;;;;;;;;;;;;;;3.36;70.37;97931.86;109216;1256;74705;-67
2024/01/14 07:18:54;;;;;;;;;;;;;;;3.15;70.91;97933.70;109217;1255;68643;-63
2024/01/14 07:21:23;;;;;;;;;;;;;;;3.23;70.75;97926.03;109170;1255;72767;-64
2024/01/14 07:23:50;;;;;;;;;;;;;;;3.15;70.43;97924.86;109130;1257;60909;-65
2024/01/14 07:26:18;;;;;;;;;;;;;;;3.11;70.46;97925.65;109181;1256;58904;-63
2024/01/14 07:28:52;;;;;;;;;;;;;;;3.03;70.90;97922.00;109221;1256;73442;-64
2024/01/14 07:31:21;;;;;;;;;;;;;;;3.22;69.80;97922.57;109200;1256;68824;-63
2024/01/14 07:33:50;;;;;;;;;;;;;;;3.00;70.82;97914.95;109179;1256;72734;-61
2024/01/14 07:36:18;;;;;;;;;;;;;;;2.60;73.28;97907.93;109180;1257;58895;-64
2024/01/14 07:38:45;;;;;;;;;;;;;;;2.82;72.18;97901.23;109336;1253;58886;-65
2024/01/14 07:41:13;;;;;;;;;;;;;;;2.89;71.96;97906.42;109419;1253;74894;-65
2024/01/14 07:43:40;;;;;;;;;;;;;;;3.16;70.18;97905.09;109496;1253;67550;-65
2024/01/14 07:46:08;;;;;;;;;;;;;;;2.96;70.70;97899.33;109481;1253;72861;-65
2024/01/14 07:48:35;;;;;;;;;;;;;;;3.00;71.21;97901.50;109462;1256;58948;-64
2024/01/14 07:51:03;;;;;;;;;;;;;;;3.18;70.34;97903.64;109465;1254;59694;-65
2024/01/14 07:53:31;;;;;;;;;;;;;;;3.02;70.73;97902.59;109472;1254;74776;-65
2024/01/14 07:56:00;;;;;;;;;;;;;;;3.33;69.60;97901.90;109511;1253;67532;-64
2024/01/14 07:58:27;;;;;;;;;;;;;;;3.41;69.37;97901.42;109472;1254;72757;-61
2024/01/14 08:00:55;;;;;;;;;;;;;;;3.17;70.31;97900.16;109436;1254;60916;-65
2024/01/14 08:03:29;;;;;;;;;;;;;;;3.08;71.06;97895.60;109460;1253;59865;-64
2024/01/14 08:05:59;;;;;;;;;;;;;;;3.00;71.49;97890.73;109569;1253;73416;-64
2024/01/14 08:08:27;;;;;;;;;;;;;;;3.10;71.02;97890.70;109493;1254;67550;-61
2024/01/14 08:10:54;;;;;;;;;;;;;;;3.37;69.88;97900.27;109427;1254;72742;-64
2024/01/14 08:13:22;;;;;;;;;;;;;;;3.49;69.38;97897.13;109424;1253;60005;-66
2024/01/14 08:15:49;;;;;;;;;;;;;;;3.33;69.37;97895.48;109489;1253;59836;-67
2024/01/14 08:18:29;;;;;;;;;;;;;;;3.56;68.54;97904.46;109490;1254;73745;-67
2024/01/14 08:20:57;;;;;;;;;;;;;;;3.31;69.23;97896.32;109491;1253;68572;-66
2024/01/14 08:23:26;;;;;;;;;;;;;;;3.28;69.76;97902.05;109490;1254;72711;-66
2024/01/14 08:25:54;;;;;;;;;;;;;;;3.24;69.71;97907.85;109454;1253;59852;-66
2024/01/14 08:28:21;;;;;;;;;;;;;;;3.21;69.90;97901.17;109500;1253;59096;-68
2024/01/14 08:30:49;;;;;;;;;;;;;;;3.12;70.18;97900.59;109461;1253;74238;-67
2024/01/14 08:33:16;;;;;;;;;;;;;;;3.59;67.76;97904.27;109464;1255;68833;-67
2024/01/14 08:35:45;;;;;;;;;;;;;;;3.46;68.16;97903.59;109435;1254;71420;-63
2024/01/14 08:38:12;;;;;;;;;;;;;;;3.65;67.32;97906.63;109422;1254;59664;-67
2024/01/14 08:40:39;;;;;;;;;;;;;;;3.79;66.51;97904.17;109458;1254;59852;-69
2024/01/14 08:43:07;;;;;;;;;;;;;;;3.77;66.56;97901.60;109463;1253;73608;-69
2024/01/14 08:45:34;;;;;;;;;;;;;;;3.61;68.29;97898.89;109400;1253;68601;-68
2024/01/14 08:48:02;;;;;;;;;;;;;;;3.89;67.72;97904.21;109413;1253;72763;-68
2024/01/14 08:50:30;;;;;;;;;;;;;;;3.63;68.80;97896.19;109353;1253;59396;-67
2024/01/14 08:52:57;;;;;;;;;;;;;;;3.78;69.70;97900.54;109367;1253;59933;-69
2024/01/14 08:55:25;;;;;;;;;;;;;;;4.13;68.19;97903.16;109424;1253;74834;-68
2024/01/14 08:57:52;;;;;;;;;;;;;;;4.00;68.58;97890.09;109380;1253;68854;-69
2024/01/14 09:00:20;;;;;;;;;;;;;;;3.72;69.74;97885.24;109360;1253;72742;-69
2024/01/14 09:02:47;;;;;;;;;;;;;;;4.14;68.40;97887.13;109388;1254;60931;-69
2024/01/14 09:05:16;;;;;;;;;;;;;;;3.92;69.30;97883.60;109377;1253;59882;-69
2024/01/14 09:07:43;;;;;;;;;;;;;;;3.93;69.39;97876.59;109393;1253;74730;-69
2024/01/14 09:10:11;;;;;;;;;;;;;;;3.72;70.91;97872.89;109342;1253;68877;-69
2024/01/14 09:12:38;;;;;;;;;;;;;;;3.95;69.91;97872.95;109349;1256;72768;-69
2024/01/14 09:15:06;;;;;;;;;;;;;;;3.73;71.47;97862.13;109457;1253;60281;-69
2024/01/14 09:17:34;;;;;;;;;;;;;;;4.08;69.79;97865.63;109405;1253;59837;-69
2024/01/14 09:20:03;;;;;;;;;;;;;;;4.00;69.26;97861.24;109369;1253;73465;-70
2024/01/14 09:22:32;;;;;;;;;;;;;;;3.87;69.34;97857.84;109253;1253;68856;-70
2024/01/14 09:25:00;;;;;;;;;;;;;;;3.61;70.39;97850.70;109393;1253;72764;-70
2024/01/14 09:27:30;;;;;;;;;;;;;;;3.58;70.44;97850.45;109343;1253;61045;-69
2024/01/14 09:29:58;;;;;;;;;;;;;;;4.08;67.99;97842.90;109364;1253;59881;-70
2024/01/14 09:32:26;;;;;;;;;;;;;;;3.79;68.96;97837.50;109086;1253;74719;-70
2024/01/14 09:34:54;;;;;;;;;;;;;;;3.70;68.50;97831.31;109356;1254;68980;-70
2024/01/14 09:37:22;;;;;;;;;;;;;;;3.71;68.93;97832.42;109356;1253;72729;-70
2024/01/14 09:39:49;;;;;;;;;;;;;;;4.03;66.89;97829.91;109442;1253;60904;-69
2024/01/14 09:42:20;;;;;;;;;;;;;;;4.08;65.77;97829.00;109156;1253;59414;-70
2024/01/14 09:44:48;;;;;;;;;;;;;;;3.96;66.21;97829.10;109437;1253;74362;-70
2024/01/14 09:47:15;;;;;;;;;;;;;;;3.69;67.33;97815.75;109196;1253;68802;-69
2024/01/14 09:49:43;;;;;;;;;;;;;;;3.80;67.40;97819.20;109418;1253;71421;-69
2024/01/14 09:52:11;;;;;;;;;;;;;;;3.85;66.76;97816.58;109369;1253;59068;-69
2024/01/14 09:54:38;;;;;;;;;;;;;;;3.80;67.08;97811.11;109318;1253;113621;-69
2024/01/14 09:57:07;;;;;;;;;;;;;;;3.94;66.61;97803.39;109366;1253;74706;-69
2024/01/14 09:59:34;;;;;;;;;;;;;;;3.81;67.23;97802.80;109328;1253;68818;-69
2024/01/14 10:02:01;;;;;;;;;;;;;;;3.44;69.26;97799.11;109341;1253;73591;-69
2024/01/14 10:04:29;;;;;;;;;;;;;;;3.85;68.95;97797.21;109335;1253;61008;-70
2024/01/14 10:06:57;;;;;;;;;;;;;;;3.63;69.93;97793.94;109412;1253;59866;-70
2024/01/14 10:09:25;;;;;;;;;;;;;;;3.63;70.90;97793.63;109367;1253;73563;-70
2024/01/14 10:11:52;;;;;;;;;;;;;;;3.50;71.91;97788.99;109340;1254;67636;-69
2024/01/14 10:14:24;;;;;;;;;;;;;;;3.43;73.29;97780.70;109340;1253;72812;-70
2024/01/14 10:16:51;;;;;;;;;;;;;;;4.98;67.72;97792.64;109410;1253;59629;-70
2024/01/14 10:19:22;;;;;;;;;;;;;;;4.33;70.42;97787.14;109357;1254;58861;-71
2024/01/14 10:21:56;;;;;;;;;;;;;;;4.06;70.83;97784.63;109448;1253;74734;-69
2024/01/14 10:24:51;;;;;;;;;;;;;;;3.47;75.61;97773.73;109346;1253;67243;-70
2024/01/14 10:27:22;;;;;;;;;;;;;;;3.59;74.74;97772.69;109397;1253;72754;-69
2024/01/14 10:30:06;;;;;;;;;;;;;;;3.60;73.98;97772.79;108564;1257;1002319;-70
2024/01/14 10:32:33;;;;;;;;;;;;;;;3.01;76.59;97766.69;109310;1253;59045;-69
2024/01/14 10:35:23;;;;;;;;;;;;;;;3.11;76.24;97763.46;109254;1253;74777;-69
2024/01/14 10:37:51;;;;;;;;;;;;;;;3.56;74.77;97761.25;109349;1253;68819;-69
2024/01/14 10:40:18;;;;;;;;;;;;;;;3.58;74.45;97762.31;109332;1253;72788;-69
2024/01/14 10:42:45;;;;;;;;;;;;;;;3.63;73.74;97763.90;109337;1255;62580;-69
2024/01/14 10:45:13;;;;;;;;;;;;;;;3.49;74.58;97760.81;109492;1253;58994;-70
2024/01/14 10:47:42;;;;;;;;;;;;;;;3.83;73.31;97765.65;109503;1254;74737;-69
2024/01/14 10:50:11;;;;;;;;;;;;;;;4.01;70.98;97762.51;109479;1254;67292;-70
2024/01/14 10:52:39;;;;;;;;;;;;;;;3.68;71.80;97749.09;109333;1253;72833;-70
2024/01/14 10:55:13;;;;;;;;;;;;;;;3.56;71.57;97752.64;109408;1254;60914;-71
2024/01/14 10:57:41;;;;;;;;;;;;;;;3.27;72.87;97746.13;109335;1253;59300;-70
2024/01/14 11:00:09;;;;;;;;;;;;;;;3.09;72.96;97743.99;109298;1259;73448;-70
2024/01/14 11:02:37;;;;;;;;;;;;;;;3.22;72.46;97746.17;109379;1253;68614;-69
2024/01/14 11:05:07;;;;;;;;;;;;;;;3.56;70.18;97744.44;109304;1253;70800;-69
2024/01/14 11:07:35;;;;;;;;;;;;;;;3.55;69.89;97740.66;109297;1253;59039;-70
2024/01/14 11:10:03;;;;;;;;;;;;;;;3.10;71.62;97735.77;109438;1254;58964;-70
2024/01/14 11:12:36;;;;;;;;;;;;;;;3.42;70.39;97739.00;109369;1252;74658;-69
2024/01/14 11:15:06;;;;;;;;;;;;;;;3.64;68.87;97734.79;109423;1254;68630;-70
2024/01/14 11:17:54;;;;;;;;;;;;;;;3.42;70.01;97735.98;109453;1252;72793;-70
2024/01/14 11:20:23;;;;;;;;;;;;;;;3.37;70.41;97733.85;109141;1260;60949;-69
2024/01/14 11:22:58;;;;;;;;;;;;;;;3.72;68.87;97729.02;109321;1253;58958;-70
2024/01/14 11:25:33;;;;;;;;;;;;;;;3.49;69.75;97724.89;109174;1253;73454;-69
2024/01/14 11:28:02;;;;;;;;;;;;;;;3.32;70.02;97718.39;108744;1253;1002407;-70
2024/01/14 11:30:49;;;;;;;;;;;;;;;3.46;69.37;97720.64;109428;1254;71775;-69
2024/01/14 11:33:26;;;;;;;;;;;;;;;3.55;68.79;97714.23;109410;1253;60915;-69
2024/01/14 11:35:54;;;;;;;;;;;;;;;3.73;67.69;97718.77;109484;1253;59903;-69
2024/01/14 11:38:40;;;;;;;;;;;;;;;3.68;67.16;97707.64;109265;1254;74719;-71
2024/01/14 11:41:28;;;;;;;;;;;;;;;4.03;65.69;97711.92;109250;1253;67552;-70
2024/01/14 11:44:02;;;;;;;;;;;;;;;3.64;66.94;97708.73;108707;1254;1002985;-70
2024/01/14 11:46:39;;;;;;;;;;;;;;;3.33;68.21;97704.34;109270;1253;60954;-70
2024/01/14 11:49:10;;;;;;;;;;;;;;;3.58;67.33;97703.16;108681;1254;1003334;-70
2024/01/14 11:52:02;;;;;;;;;;;;;;;3.58;67.20;97700.52;108831;1253;1002972;-70
2024/01/14 11:54:31;;;;;;;;;;;;;;;3.51;67.97;97697.44;109577;1253;68792;-70
2024/01/14 11:57:01;;;;;;;;;;;;;;;3.60;67.25;97696.56;109327;1253;72720;-70
2024/01/14 11:59:28;;;;;;;;;;;;;;;3.28;68.50;97695.02;109390;1254;60904;-70
2024/01/14 12:02:15;;;;;;;;;;;;;;;3.45;67.79;97693.35;109369;1253;60013;-70
2024/01/14 12:04:43;;;;;;;;;;;;;;;3.64;67.15;97702.59;109322;1253;73451;-71
2024/01/14 12:07:21;;;;;;;;;;;;;;;3.41;68.01;97694.02;109334;1253;68855;-71
2024/01/14 12:09:53;;;;;;;;;;;;;;;3.86;66.45;97693.38;109350;1254;72870;-69
2024/01/14 12:12:22;;;;;;;;;;;;;;;3.43;67.64;97689.84;109470;1253;61061;-68
2024/01/14 12:14:50;;;;;;;;;;;;;;;3.33;68.59;97686.52;109492;1253;59911;-69
2024/01/14 12:17:18;;;;;;;;;;;;;;;3.52;68.00;97685.92;109489;1254;74724;-68
2024/01/14 12:19:55;;;;;;;;;;;;;;;3.28;68.83;97680.52;109432;1254;67722;-69
2024/01/14 12:22:22;;;;;;;;;;;;;;;3.11;70.08;97678.73;109429;1254;72754;-67
2024/01/14 12:24:50;;;;;;;;;;;;;;;2.97;71.08;97676.80;109456;1254;59634;-68
2024/01/14 12:27:17;;;;;;;;;;;;;;;3.21;70.83;97690.66;109617;1253;59869;-68
2024/01/14 12:29:45;;;;;;;;;;;;;;;3.17;70.86;97687.16;109473;1253;74645;-69
2024/01/14 12:32:12;;;;;;;;;;;;;;;3.16;71.43;97686.48;109500;1254;67613;-69
2024/01/14 12:34:46;;;;;;;;;;;;;;;3.22;71.65;97678.77;109439;1254;73166;-69
2024/01/14 12:37:13;;;;;;;;;;;;;;;3.08;71.90;97675.64;109465;1254;60119;-69
2024/01/14 12:39:41;;;;;;;;;;;;;;;3.33;71.29;97678.55;109582;1253;58936;-68
2024/01/14 12:42:11;;;;;;;;;;;;;;;3.80;69.07;97679.98;109520;1253;73502;-67
2024/01/14 12:44:41;;;;;;;;;;;;;;;3.48;69.98;97680.80;109474;1253;67809;-68
2024/01/14 12:47:08;;;;;;;;;;;;;;;3.62;69.68;97682.87;109460;1254;72742;-69
2024/01/14 12:49:37;;;;;;;;;;;;;;;3.73;69.24;97692.45;109466;1253;60953;-70
2024/01/14 12:52:06;;;;;;;;;;;;;;;3.50;69.84;97683.95;109447;1254;59898;-70